Time;durP1;ratioP1;P1;durP2;ratioP2;P2;SDS_P1;SDS_P2;PMS_P1;PMS_P2;Temp;Humidity;BMP_temperature;BMP_pressure;BME280_temperature;BME280_humidity;BME280_pressure;Samples;Min_cycle;Max_cycle;Signal;HPM_P1;HPM_P2
2022/05/18 00:00:21;;;;;;;;;5.75;5.75;;;;;24.74;48.92;101160.81;5073465;28;45955;-65
2022/05/18 00:02:46;;;;;;;;;4.80;4.00;;;;;24.69;48.93;101158.56;5071431;27;45554;-64
2022/05/18 00:05:12;;;;;;;;;5.00;5.00;;;;;24.67;49.41;101160.59;5074250;28;45308;-63
2022/05/18 00:07:37;;;;;;;;;5.00;5.00;;;;;24.64;49.58;101163.63;5075005;28;45582;-63
2022/05/18 00:10:03;;;;;;;;;6.50;5.00;;;;;24.61;49.74;101166.69;5074911;27;45233;-63
2022/05/18 00:12:29;;;;;;;;;3.60;3.60;;;;;24.58;50.02;101177.88;5074007;27;45570;-62
2022/05/18 00:14:55;;;;;;;;;5.00;5.00;;;;;24.54;50.41;101181.94;5073759;27;45330;-63
2022/05/18 00:17:20;;;;;;;;;3.50;3.50;;;;;24.52;50.40;101178.53;5076347;27;45446;-63
2022/05/18 00:19:46;;;;;;;;;6.00;5.00;;;;;24.46;50.57;101179.16;5075448;27;45435;-63
2022/05/18 00:22:12;;;;;;;;;5.50;5.25;;;;;24.37;51.10;101170.13;5075049;28;45344;-64
2022/05/18 00:24:37;;;;;;;;;7.25;5.25;;;;;24.38;51.53;101182.72;5076421;27;45378;-65
2022/05/18 00:27:03;;;;;;;;;7.50;6.00;;;;;24.36;51.19;101181.19;5074600;28;45474;-65
2022/05/18 00:29:31;;;;;;;;;5.25;5.25;;;;;24.27;52.29;101185.66;5076201;27;45637;-64
2022/05/18 00:31:57;;;;;;;;;7.00;7.00;;;;;24.20;52.92;101190.03;5074245;28;45178;-64
2022/05/18 00:34:22;;;;;;;;;9.25;7.00;;;;;24.12;52.33;101184.56;5075816;28;45210;-64
2022/05/18 00:36:48;;;;;;;;;6.75;4.50;;;;;24.11;52.72;101191.00;5077480;28;45214;-65
2022/05/18 00:39:14;;;;;;;;;5.50;5.50;;;;;24.04;53.45;101192.63;5079617;27;45499;-64
2022/05/18 00:41:39;;;;;;;;;6.50;6.50;;;;;23.98;53.37;101193.28;5078369;28;45475;-63
2022/05/18 00:44:06;;;;;;;;;4.75;4.75;;;;;23.81;55.72;101209.44;5078603;28;45608;-63
2022/05/18 00:46:31;;;;;;;;;6.75;6.75;;;;;23.72;55.05;101207.69;5079676;27;45294;-65
2022/05/18 00:48:57;;;;;;;;;4.75;4.25;;;;;23.75;54.93;101211.94;5078412;27;45481;-65
2022/05/18 00:51:38;;;;;;;;;7.50;6.00;;;;;23.73;54.58;101213.97;5075336;27;45481;-63
2022/05/18 00:54:15;;;;;;;;;4.50;4.50;;;;;23.65;54.84;101211.16;5078434;28;45324;-62
2022/05/18 00:57:04;;;;;;;;;7.50;7.50;;;;;23.53;55.95;101214.06;5078658;27;45298;-63
2022/05/18 00:59:35;;;;;;;;;5.00;5.00;;;;;23.36;57.04;101214.91;5076884;27;46185;-63
2022/05/18 01:02:02;;;;;;;;;5.25;5.25;;;;;23.37;56.34;101226.63;5075592;28;45837;-62
2022/05/18 01:04:27;;;;;;;;;5.25;5.25;;;;;23.38;56.29;101231.06;5077762;27;45428;-65
2022/05/18 01:07:06;;;;;;;;;10.50;8.75;;;;;23.34;57.11;101237.81;5077901;27;45390;-65
2022/05/18 01:09:35;;;;;;;;;6.00;5.00;;;;;23.28;57.30;101230.25;5067821;28;45454;-63
2022/05/18 01:12:02;;;;;;;;;3.25;3.25;;;;;23.31;56.12;101241.69;5093479;27;45429;-62
2022/05/18 01:14:54;;;;;;;;;7.00;7.00;;;;;23.27;56.77;101233.97;5078130;27;45308;-62
2022/05/18 01:17:25;;;;;;;;;3.25;3.25;;;;;23.25;57.05;101236.84;5067917;28;45409;-64
2022/05/18 01:19:53;;;;;;;;;4.25;4.00;;;;;23.20;56.83;101244.59;5082961;27;45536;-67
2022/05/18 01:22:40;;;;;;;;;6.75;6.75;;;;;23.16;57.52;101237.75;5078451;27;45475;-66
2022/05/18 01:25:23;;;;;;;;;5.00;5.00;;;;;23.15;56.75;101236.03;5078239;28;45325;-63
2022/05/18 01:27:49;;;;;;;;;6.00;5.00;;;;;23.07;57.81;101233.25;5075997;28;45345;-62
2022/05/18 01:30:15;;;;;;;;;6.25;6.25;;;;;22.95;57.76;101240.75;5070768;28;45344;-65
2022/05/18 01:32:48;;;;;;;;;8.50;5.75;;;;;22.93;58.63;101245.47;5077808;27;45364;-64
2022/05/18 01:35:26;;;;;;;;;5.00;5.00;;;;;22.82;58.05;101249.19;5077596;27;45439;-64
2022/05/18 01:37:57;;;;;;;;;5.00;5.00;;;;;22.82;59.28;101249.19;5078094;27;45834;-62
2022/05/18 01:40:41;;;;;;;;;6.00;6.00;;;;;22.80;58.45;101248.50;5076369;27;45547;-63
2022/05/18 01:43:21;;;;;;;;;7.00;5.25;;;;;22.68;60.21;101244.25;5073094;28;45373;-64
2022/05/18 01:45:56;;;;;;;;;8.25;7.00;;;;;22.54;61.00;101236.59;5060299;28;45687;-63
2022/05/18 01:48:31;;;;;;;;;6.00;6.00;;;;;22.48;60.68;101250.72;5075806;28;45403;-63
2022/05/18 01:50:59;;;;;;;;;7.75;5.00;;;;;22.51;60.42;101254.00;5075869;27;45591;-63
2022/05/18 01:53:24;;;;;;;;;6.25;6.25;;;;;22.44;62.13;101260.16;5076646;27;45547;-63
2022/05/18 01:55:50;;;;;;;;;7.25;7.00;;;;;22.28;62.49;101258.06;5075987;28;45638;-63
2022/05/18 01:58:16;;;;;;;;;8.00;6.50;;;;;22.18;62.70;101257.22;5077439;27;45626;-62
2022/05/18 02:00:44;;;;;;;;;10.00;6.50;;;;;22.14;63.07;101261.22;5073283;28;46482;-64
2022/05/18 02:03:10;;;;;;;;;5.00;5.00;;;;;22.15;62.15;101261.06;5065863;27;45605;-65
2022/05/18 02:05:36;;;;;;;;;5.25;5.25;;;;;22.22;62.10;101261.34;5076186;27;45282;-63
2022/05/18 02:08:03;;;;;;;;;5.67;5.67;;;;;22.15;62.73;101274.63;5075542;28;45610;-64
2022/05/18 02:10:28;;;;;;;;;5.33;5.00;;;;;22.01;62.97;101277.75;5076734;27;46883;-64
2022/05/18 02:12:54;;;;;;;;;6.00;5.00;;;;;21.95;63.03;101284.56;5070417;27;46002;-64
2022/05/18 02:15:20;;;;;;;;;5.00;5.00;;;;;21.88;63.29;101288.00;5080148;27;45489;-64
2022/05/18 02:17:45;;;;;;;;;6.00;6.00;;;;;21.84;62.95;101287.41;5075821;27;45600;-64
2022/05/18 02:20:12;;;;;;;;;6.33;6.33;;;;;21.85;63.38;101290.97;5072835;28;45943;-64
2022/05/18 02:22:37;;;;;;;;;7.25;5.50;;;;;21.79;63.26;101290.56;5076576;27;45516;-64
2022/05/18 02:25:04;;;;;;;;;12.50;7.25;;;;;21.79;63.23;101290.56;5076413;28;45366;-65
2022/05/18 02:27:30;;;;;;;;;5.75;3.00;;;;;21.71;63.68;101301.22;5077687;27;45420;-63
2022/05/18 02:29:56;;;;;;;;;5.00;5.00;;;;;21.62;63.23;101296.66;5075703;27;45999;-62
2022/05/18 02:32:22;;;;;;;;;6.67;5.00;;;;;21.49;63.56;101305.06;5076272;27;45373;-64
2022/05/18 02:34:48;;;;;;;;;5.33;5.33;;;;;21.38;63.67;101302.47;5077007;27;45378;-64
2022/05/18 02:37:13;;;;;;;;;5.33;4.67;;;;;21.29;63.56;101314.09;5075506;27;45690;-63
2022/05/18 02:39:39;;;;;;;;;8.00;6.00;;;;;21.20;63.54;101321.16;5075813;27;46043;-65
2022/05/18 02:42:04;;;;;;;;;6.00;5.00;;;;;21.12;64.12;101323.69;5077866;27;45221;-64
2022/05/18 02:44:29;;;;;;;;;4.67;4.00;;;;;21.02;63.48;101319.25;5076038;27;45284;-64
2022/05/18 02:46:57;;;;;;;;;3.00;3.00;;;;;20.96;64.03;101317.06;5074242;28;45822;-65
2022/05/18 02:49:23;;;;;;;;;5.50;5.50;;;;;20.94;63.81;101325.31;5076242;27;45337;-64
2022/05/18 02:51:51;;;;;;;;;5.00;5.00;;;;;20.90;63.83;101324.72;5076248;27;45531;-64
2022/05/18 02:57:01;;;;;;;;;4.00;4.00;;;;;20.87;63.34;101334.97;5074568;28;45402;-64
2022/05/18 02:59:27;;;;;;;;;3.00;3.00;;;;;20.84;62.89;101341.50;5066672;28;46072;-64
2022/05/18 03:01:52;;;;;;;;;5.00;3.67;;;;;20.83;62.66;101338.91;5074203;27;45377;-63
2022/05/18 03:04:18;;;;;;;;;2.00;2.00;;;;;20.78;63.16;101336.63;5075629;27;45451;-64
2022/05/18 03:06:44;;;;;;;;;6.33;4.00;;;;;20.77;62.91;101343.00;5074660;28;45407;-65
2022/05/18 03:09:10;;;;;;;;;5.00;3.67;;;;;20.77;63.01;101336.75;5072832;28;45484;-64
2022/05/18 03:11:35;;;;;;;;;3.00;3.00;;;;;20.71;63.04;101337.31;5077399;28;45253;-64
2022/05/18 03:14:01;;;;;;;;;3.33;3.33;;;;;20.49;63.40;101320.22;5071830;28;45256;-63
2022/05/18 03:16:27;;;;;;;;;4.00;3.00;;;;;20.47;63.22;101338.44;5074873;27;45554;-63
2022/05/18 03:18:53;;;;;;;;;3.33;1.00;;;;;20.47;62.25;101348.38;5074688;27;46153;-62
2022/05/18 03:24:03;;;;;;;;;4.00;3.00;;;;;20.37;62.15;101353.66;5075830;28;45347;-64
2022/05/18 03:26:29;;;;;;;;;2.00;2.00;;;;;20.21;62.79;101342.47;5077089;27;45496;-63
2022/05/18 03:28:56;;;;;;;;;4.25;3.00;;;;;20.14;63.71;101350.22;5074842;27;46084;-64
2022/05/18 03:31:22;;;;;;;;;3.67;2.00;;;;;20.15;62.92;101357.31;5073443;27;45561;-64
2022/05/18 03:33:48;;;;;;;;;4.67;3.67;;;;;20.16;63.55;101360.88;5075902;27;45523;-64
2022/05/18 03:36:16;;;;;;;;;2.00;2.00;;;;;20.15;63.27;101359.16;5074197;27;45607;-64
2022/05/18 03:38:43;;;;;;;;;7.00;4.33;;;;;20.10;64.00;101366.81;5073593;28;45413;-64
2022/05/18 03:41:09;;;;;;;;;4.67;4.67;;;;;20.07;63.75;101377.88;5075682;28;45421;-64
2022/05/18 03:43:35;;;;;;;;;5.00;3.33;;;;;20.07;63.76;101377.88;5074586;27;45443;-64
2022/05/18 03:46:02;;;;;;;;;4.67;4.67;;;;;19.95;63.96;101375.22;5075303;27;45329;-62
2022/05/18 03:48:29;;;;;;;;;4.00;4.00;;;;;19.96;63.35;101373.38;5074625;27;46062;-64
2022/05/18 03:50:57;;;;;;;;;2.33;2.33;;;;;19.98;62.70;101388.44;5075223;27;45533;-64
2022/05/18 03:53:23;;;;;;;;;2.00;2.00;;;;;19.84;63.00;101388.72;5073371;28;45307;-64
2022/05/18 03:55:49;;;;;;;;;3.00;2.00;;;;;19.83;62.89;101389.72;5074767;28;45438;-63
2022/05/18 03:58:14;;;;;;;;;4.67;2.00;;;;;19.80;63.56;101398.06;5074395;27;46482;-63
2022/05/18 04:00:42;;;;;;;;;4.33;3.00;;;;;19.81;63.36;101394.38;5075682;27;45410;-64
2022/05/18 04:03:09;;;;;;;;;5.00;2.00;;;;;19.82;62.64;101409.59;5072274;28;46481;-63
2022/05/18 04:05:37;;;;;;;;;2.00;2.00;;;;;19.73;62.16;101411.19;5075688;28;45569;-63
2022/05/18 04:08:02;;;;;;;;;1.00;1.00;;;;;19.65;62.26;101410.09;5086706;27;46236;-63
2022/05/18 04:10:28;;;;;;;;;2.00;2.00;;;;;19.49;62.48;101406.91;5074363;27;45388;-65
2022/05/18 04:12:53;;;;;;;;;2.00;2.00;;;;;19.47;62.43;101408.88;5075273;28;45180;-63
2022/05/18 04:15:19;;;;;;;;;2.00;2.00;;;;;19.52;62.22;101414.72;5075295;27;45533;-62
2022/05/18 04:17:46;;;;;;;;;1.00;1.00;;;;;19.43;61.95;101406.41;5074934;28;46100;-63
2022/05/18 04:20:18;;;;;;;;;3.33;2.00;;;;;19.42;62.24;101412.78;5071307;28;45514;-62
2022/05/18 04:22:44;;;;;;;;;2.00;2.00;;;;;19.43;61.91;101414.50;5074792;28;45371;-63
2022/05/18 04:25:11;;;;;;;;;1.33;1.33;;;;;19.33;62.11;101409.97;5074742;27;45512;-64
2022/05/18 04:27:37;;;;;;;;;1.00;1.00;;;;;19.24;61.78;101411.56;5074935;27;45423;-63
2022/05/18 04:30:04;;;;;;;;;0.67;0.67;;;;;19.23;62.40;101412.53;5073372;27;45543;-63
2022/05/18 04:32:29;;;;;;;;;1.00;1.00;;;;;19.24;62.33;101416.09;5084093;27;45402;-63
2022/05/18 04:34:54;;;;;;;;;2.00;2.00;;;;;19.35;61.94;101414.25;5069888;27;45687;-65
2022/05/18 04:37:20;;;;;;;;;3.00;3.00;;;;;19.43;61.54;101411.81;5072073;28;45365;-65
2022/05/18 04:39:46;;;;;;;;;2.00;2.00;;;;;19.44;61.59;101418.94;5073251;27;45318;-63
2022/05/18 04:42:11;;;;;;;;;2.33;2.33;;;;;19.41;61.14;101411.09;5075774;27;45782;-66
2022/05/18 04:44:38;;;;;;;;;3.00;2.00;;;;;19.36;61.67;101421.38;5089115;27;45501;-64
2022/05/18 04:47:04;;;;;;;;;2.00;2.00;;;;;19.35;61.38;101425.03;5072093;28;45555;-64
2022/05/18 04:49:30;;;;;;;;;3.00;3.00;;;;;19.40;61.64;101433.66;5073141;27;45537;-63
2022/05/18 04:51:55;;;;;;;;;1.00;1.00;;;;;19.41;61.23;101435.34;5073001;28;45611;-63
2022/05/18 04:54:21;;;;;;;;;2.00;2.00;;;;;19.32;61.68;101437.94;5074093;28;45481;-63
2022/05/18 04:56:46;;;;;;;;;1.00;1.00;;;;;19.20;61.65;101439.75;5072949;28;45578;-64
2022/05/18 04:59:12;;;;;;;;;2.00;2.00;;;;;19.17;62.11;101448.09;5073962;28;45511;-63
2022/05/18 05:01:38;;;;;;;;;2.00;2.00;;;;;19.22;61.66;101448.56;5073204;27;45641;-63
2022/05/18 05:04:09;;;;;;;;;2.33;2.33;;;;;19.24;61.35;101452.00;5073941;28;45491;-71
2022/05/18 05:06:39;;;;;;;;;3.00;1.67;;;;;19.33;61.33;101455.81;5075199;27;46429;-70
2022/05/18 05:09:05;;;;;;;;;3.00;2.00;;;;;19.33;61.16;101453.97;5071803;27;45627;-65
2022/05/18 05:11:31;;;;;;;;;2.00;1.00;;;;;19.35;60.32;101457.41;5070575;28;46848;-62
2022/05/18 05:13:56;;;;;;;;;3.67;2.00;;;;;19.40;60.65;101455.22;5074318;27;45691;-63
2022/05/18 05:16:22;;;;;;;;;1.00;1.00;;;;;19.47;60.66;101457.41;5074204;27;46013;-63
2022/05/18 05:18:47;;;;;;;;;1.00;1.00;;;;;19.50;60.23;101465.25;5073297;28;45445;-63
2022/05/18 05:21:13;;;;;;;;;2.00;2.00;;;;;19.49;60.11;101459.00;5075986;28;45323;-67
2022/05/18 05:23:38;;;;;;;;;4.33;3.67;;;;;19.57;60.18;101466.53;5075968;27;45489;-63
2022/05/18 05:26:04;;;;;;;;;1.67;1.67;;;;;19.64;59.71;101473.16;5076283;27;46126;-63
2022/05/18 05:28:30;;;;;;;;;3.00;3.00;;;;;19.66;59.83;101481.97;5077176;27;45396;-62
2022/05/18 05:31:04;;;;;;;;;4.00;2.33;;;;;19.61;59.87;101476.94;5078034;27;45328;-65
2022/05/18 05:33:30;;;;;;;;;2.00;2.00;;;;;19.67;59.76;101481.03;5074858;28;45489;-65
2022/05/18 05:35:57;;;;;;;;;3.00;3.00;;;;;19.73;58.83;101492.16;5076724;28;45458;-71
2022/05/18 05:38:23;;;;;;;;;3.00;2.00;;;;;19.82;58.71;101489.72;5076077;28;45603;-68
2022/05/18 05:40:48;;;;;;;;;3.33;2.00;;;;;19.86;58.75;101491.19;5077713;27;45672;-64
2022/05/18 05:43:14;;;;;;;;;3.00;1.00;;;;;19.89;58.42;101478.28;5077449;27;45796;-62
2022/05/18 05:45:39;;;;;;;;;3.67;3.00;;;;;19.84;58.76;101491.31;5076970;27;46835;-64
2022/05/18 05:48:07;;;;;;;;;2.00;2.00;;;;;19.73;58.86;101499.41;5075589;27;45460;-64
2022/05/18 05:50:33;;;;;;;;;2.00;2.00;;;;;19.64;58.91;101500.13;5076725;27;45348;-63
2022/05/18 05:53:00;;;;;;;;;3.00;1.00;;;;;19.64;58.77;101495.59;5075413;28;45723;-66
2022/05/18 05:55:26;;;;;;;;;3.00;3.00;;;;;19.70;58.90;101505.91;5074219;28;46233;-67
2022/05/18 05:57:54;;;;;;;;;3.33;3.00;;;;;19.78;58.66;101507.13;5073362;28;45404;-68
2022/05/18 06:00:20;;;;;;;;;2.00;2.00;;;;;19.82;58.90;101508.63;5074827;27;45468;-63
2022/05/18 06:02:46;;;;;;;;;2.00;2.00;;;;;19.84;58.89;101506.66;5077679;27;46076;-59
2022/05/18 06:05:12;;;;;;;;;4.33;4.33;;;;;19.82;59.46;101509.47;5078394;28;45859;-61
2022/05/18 06:07:38;;;;;;;;;2.00;2.00;;;;;19.83;59.01;101504.94;5076994;27;45385;-60
2022/05/18 06:10:03;;;;;;;;;4.00;3.00;;;;;19.87;58.64;101507.25;5077689;28;45314;-61
2022/05/18 06:12:29;;;;;;;;;1.00;1.00;;;;;19.85;58.48;101514.63;5076446;28;45590;-62
2022/05/18 06:14:54;;;;;;;;;1.00;1.00;;;;;19.79;58.66;101514.22;5078332;27;46418;-66
2022/05/18 06:17:20;;;;;;;;;2.67;1.67;;;;;19.78;58.40;101512.50;5074643;27;45575;-58
2022/05/18 06:19:46;;;;;;;;;3.00;1.67;;;;;19.84;58.30;101512.03;5077617;27;45466;-62
2022/05/18 06:22:11;;;;;;;;;3.00;2.00;;;;;19.84;58.81;101507.50;5077240;27;45235;-66
2022/05/18 06:24:37;;;;;;;;;1.33;1.33;;;;;19.90;58.12;101514.22;5074006;28;48184;-66
2022/05/18 06:27:03;;;;;;;;;1.00;1.00;;;;;19.94;58.18;101515.72;5077176;27;45256;-67
2022/05/18 06:29:28;;;;;;;;;2.67;2.67;;;;;19.96;57.08;101511.91;5076792;27;45482;-65
2022/05/18 06:31:54;;;;;;;;;1.33;1.33;;;;;19.88;57.30;101518.91;5077903;27;45567;-65
2022/05/18 06:34:21;;;;;;;;;1.33;1.00;;;;;19.84;57.43;101521.00;5075015;27;45348;-66
2022/05/18 06:36:49;;;;;;;;;1.67;1.67;;;;;19.90;57.39;101523.19;5077506;27;45619;-66
2022/05/18 06:39:18;;;;;;;;;2.00;2.00;;;;;19.95;58.09;101526.41;5078042;27;45468;-66
2022/05/18 06:41:44;;;;;;;;;1.67;1.67;;;;;20.03;56.99;101518.50;5077631;27;45447;-66
2022/05/18 06:44:10;;;;;;;;;2.67;1.33;;;;;20.02;56.53;101507.84;5077658;28;45417;-66
2022/05/18 06:46:38;;;;;;;;;1.00;1.00;;;;;19.93;56.82;101514.88;5075419;28;45336;-67
2022/05/18 06:49:09;;;;;;;;;2.33;2.33;;;;;19.95;56.76;101515.59;5076158;28;45192;-65
2022/05/18 06:51:38;;;;;;;;;2.33;1.00;;;;;19.95;57.37;101518.28;5075084;27;45472;-64
2022/05/18 06:54:04;;;;;;;;;6.00;4.00;;;;;20.02;56.93;101516.81;5076921;27;46032;-66
2022/05/18 06:56:33;;;;;;;;;5.67;5.00;;;;;20.04;56.36;101512.13;5076271;27;45538;-59
2022/05/18 06:58:59;;;;;;;;;4.00;4.00;;;;;20.17;56.13;101513.84;5078280;27;45408;-56
2022/05/18 07:01:26;;;;;;;;;2.00;2.00;;;;;20.23;55.56;101510.66;5076079;27;45535;-54
2022/05/18 07:03:52;;;;;;;;;2.00;2.00;;;;;20.33;55.52;101520.56;5056397;28;45255;-55
2022/05/18 07:06:21;;;;;;;;;2.00;2.00;;;;;20.38;55.64;101509.38;5072504;28;45270;-58
2022/05/18 07:08:47;;;;;;;;;4.00;3.00;;;;;20.40;56.12;101526.31;5075048;27;45425;-58
2022/05/18 07:11:13;;;;;;;;;0.00;0.00;;;;;20.43;56.15;101509.88;5075126;28;45472;-59
2022/05/18 07:13:39;;;;;;;;;5.33;2.00;;;;;20.51;55.72;101507.41;5072809;27;45476;-58
2022/05/18 07:16:05;;;;;;;;;2.67;2.67;;;;;20.57;55.86;101512.31;5075262;28;45553;-61
2022/05/18 07:18:32;;;;;;;;;1.00;1.00;;;;;20.67;55.56;101516.94;5072742;27;45976;-60
2022/05/18 07:20:59;;;;;;;;;1.00;1.00;;;;;20.69;55.60;101510.41;5071201;28;45518;-59
2022/05/18 07:23:26;;;;;;;;;2.00;2.00;;;;;20.76;55.40;101514.31;5071592;28;45427;-54
2022/05/18 07:25:57;;;;;;;;;2.00;2.00;;;;;20.80;55.72;101509.50;5075446;28;45394;-56
2022/05/18 07:28:23;;;;;;;;;3.67;3.00;;;;;20.81;55.25;101511.22;5067881;27;45472;-56
2022/05/18 07:30:50;;;;;;;;;1.00;1.00;;;;;20.81;55.05;101513.91;5072225;28;45451;-56
2022/05/18 07:33:17;;;;;;;;;7.00;7.00;;;;;20.81;55.48;101508.50;5083570;27;45472;-58
2022/05/18 07:35:44;;;;;;;;;3.00;3.00;;;;;20.91;55.07;101514.84;5072839;28;45433;-56
2022/05/18 07:38:09;;;;;;;;;3.00;3.00;;;;;20.96;55.02;101518.00;5075942;27;45467;-57
2022/05/18 07:40:35;;;;;;;;;4.00;3.00;;;;;21.02;55.01;101516.66;5076599;28;45463;-55
2022/05/18 07:43:01;;;;;;;;;2.00;2.00;;;;;21.04;55.10;101514.66;5075745;28;45926;-58
2022/05/18 07:45:28;;;;;;;;;3.00;2.00;;;;;21.07;54.86;101515.25;5056937;28;47601;-57
2022/05/18 07:47:54;;;;;;;;;2.00;2.00;;;;;21.13;55.10;101514.75;5073776;28;45378;-54
2022/05/18 07:50:22;;;;;;;;;3.00;2.50;;;;;21.19;54.80;101518.75;5080340;27;45447;-57
2022/05/18 07:52:47;;;;;;;;;2.33;2.33;;;;;21.23;54.79;101513.97;5073299;27;46279;-58
2022/05/18 07:55:13;;;;;;;;;2.00;2.00;;;;;21.29;54.65;101511.59;5075215;27;45622;-57
2022/05/18 07:57:39;;;;;;;;;3.00;3.00;;;;;21.34;54.61;101516.59;5065330;28;45358;-55
2022/05/18 08:00:07;;;;;;;;;2.67;2.67;;;;;21.38;54.67;101509.97;5075995;27;45357;-53
2022/05/18 08:02:33;;;;;;;;;5.00;5.00;;;;;21.41;54.69;101517.81;5075719;27;45400;-56
2022/05/18 08:04:59;;;;;;;;;3.50;2.75;;;;;21.54;54.21;101510.31;5075774;28;45452;-54
2022/05/18 08:07:25;;;;;;;;;2.25;2.25;;;;;21.68;54.08;101509.97;5093198;27;45383;-58
2022/05/18 08:15:19;;;;;;;;;2.25;2.25;;;;;22.26;53.01;101510.19;5073636;28;45539;-59
2022/05/18 08:17:45;;;;;;;;;4.00;3.00;;;;;22.42;52.69;101506.09;5074437;28;45413;-58
2022/05/18 08:20:13;;;;;;;;;3.00;3.00;;;;;22.75;51.58;101505.69;5074428;28;45397;-56
2022/05/18 08:22:42;;;;;;;;;3.00;3.00;;;;;23.22;50.38;101500.41;5075649;27;45780;-57
2022/05/18 08:25:09;;;;;;;;;3.00;3.00;;;;;23.55;49.56;101494.44;5074121;28;45425;-59
2022/05/18 08:27:39;;;;;;;;;1.50;1.50;;;;;23.90;48.20;101490.19;5075585;27;45396;-60
2022/05/18 08:30:06;;;;;;;;;2.50;2.50;;;;;24.30;48.00;101499.84;5074358;28;45383;-59
2022/05/18 08:32:31;;;;;;;;;3.00;1.75;;;;;24.60;47.30;101496.75;5073398;27;46746;-60
2022/05/18 08:34:57;;;;;;;;;2.50;0.75;;;;;24.80;46.75;101488.44;5075176;27;45369;-57
2022/05/18 08:37:24;;;;;;;;;2.50;2.50;;;;;25.06;47.15;101492.09;5074545;28;45455;-57
2022/05/18 08:39:51;;;;;;;;;5.25;3.25;;;;;25.32;46.71;101499.44;5075020;27;45589;-58
2022/05/18 08:42:18;;;;;;;;;2.80;2.80;;;;;25.56;45.61;101495.00;5073429;28;45531;-61
2022/05/18 08:44:44;;;;;;;;;1.60;1.60;;;;;25.68;45.13;101487.41;5075157;28;45420;-65
2022/05/18 08:47:16;;;;;;;;;2.25;2.25;;;;;25.82;44.49;101491.41;5066679;27;46461;-60
2022/05/18 08:49:41;;;;;;;;;2.75;2.00;;;;;25.99;44.71;101481.44;5073087;28;45647;-58
2022/05/18 08:52:22;;;;;;;;;2.00;2.00;;;;;26.26;44.50;101483.88;5073802;28;45447;-55
2022/05/18 08:55:25;;;;;;;;;2.00;2.00;;;;;26.49;43.77;101484.16;5073874;28;45523;-58
2022/05/18 08:57:54;;;;;;;;;1.60;1.60;;;;;26.62;44.01;101487.25;5069991;28;45711;-58
2022/05/18 09:00:25;;;;;;;;;2.60;2.60;;;;;26.81;44.06;101477.84;5077792;28;45273;-57
2022/05/18 09:03:00;;;;;;;;;2.20;2.20;;;;;26.95;42.52;101485.34;5075948;28;48489;-57
2022/05/18 09:05:35;;;;;;;;;4.00;2.80;;;;;27.10;42.76;101485.56;5077605;27;45464;-56
2022/05/18 09:08:32;;;;;;;;;2.00;2.00;;;;;27.28;42.47;101482.66;5077165;27;45456;-57
2022/05/18 09:11:08;;;;;;;;;3.80;2.00;;;;;27.34;41.74;101479.19;5077263;28;45242;-54
2022/05/18 09:13:33;;;;;;;;;3.80;3.80;;;;;27.35;42.11;101470.00;5075519;27;45508;-60
2022/05/18 09:16:14;;;;;;;;;4.00;4.00;;;;;27.49;42.56;101469.28;5078332;27;45378;-58
2022/05/18 09:18:55;;;;;;;;;1.80;1.00;;;;;27.69;41.78;101468.91;5077136;27;45543;-58
2022/05/18 09:21:38;;;;;;;;;4.00;4.00;;;;;27.75;41.14;101468.22;5077502;28;45372;-57
2022/05/18 09:24:19;;;;;;;;;2.40;2.40;;;;;27.74;41.17;101469.25;5076106;27;45379;-60
2022/05/18 09:26:51;;;;;;;;;2.00;2.00;;;;;27.90;40.98;101466.44;5077529;27;45388;-58
2022/05/18 09:29:28;;;;;;;;;4.60;4.20;;;;;28.08;41.40;101463.44;5075582;27;45450;-58
2022/05/18 09:32:21;;;;;;;;;4.80;4.00;;;;;28.35;40.21;101460.22;5066349;27;45496;-57
2022/05/18 09:35:20;;;;;;;;;7.40;5.40;;;;;28.58;40.59;101465.69;5071095;28;45435;-57
2022/05/18 09:38:01;;;;;;;;;5.00;4.80;;;;;28.86;39.83;101459.66;5068240;28;45450;-58
2022/05/18 09:40:50;;;;;;;;;4.80;4.40;;;;;29.19;39.10;101457.50;5075513;28;45515;-57
2022/05/18 09:43:29;;;;;;;;;5.00;5.00;;;;;29.56;38.29;101453.84;5076816;28;45358;-55
2022/05/18 09:45:57;;;;;;;;;2.00;2.00;;;;;29.66;37.96;101454.41;5078431;28;45465;-55
2022/05/18 09:48:37;;;;;;;;;3.60;2.20;;;;;29.78;37.35;101446.56;5078468;27;45446;-55
2022/05/18 09:51:04;;;;;;;;;2.60;2.60;;;;;29.84;37.83;101445.81;5076115;28;45510;-56
2022/05/18 09:53:30;;;;;;;;;3.80;3.80;;;;;30.10;37.39;101446.16;5076383;28;45482;-56
2022/05/18 09:55:55;;;;;;;;;3.25;3.25;;;;;30.33;36.42;101437.75;5076195;28;46207;-61
2022/05/18 09:58:40;;;;;;;;;3.00;3.00;;;;;30.64;36.88;101440.22;5071378;27;45495;-62
2022/05/18 10:09:44;;;;;;;;;4.20;2.60;;;;;31.31;34.81;101434.22;5083110;27;45333;-54
2022/05/18 10:12:36;;;;;;;;;2.60;2.20;;;;;31.31;34.55;101434.22;5076318;27;45481;-56
2022/05/18 10:15:07;;;;;;;;;2.60;2.60;;;;;31.23;34.39;101436.25;5077531;28;45469;-54
2022/05/18 10:17:37;;;;;;;;;3.40;3.40;;;;;31.05;34.96;101437.59;5076731;27;45385;-54
2022/05/18 10:20:11;;;;;;;;;3.00;3.00;;;;;30.81;35.53;101427.91;5077088;27;45454;-57
2022/05/18 10:22:44;;;;;;;;;2.00;2.00;;;;;30.59;36.24;101422.59;5078405;27;45306;-59
2022/05/18 10:25:14;;;;;;;;;4.40;4.40;;;;;30.33;35.39;101418.53;5077689;27;45394;-64
2022/05/18 10:27:44;;;;;;;;;2.60;2.60;;;;;29.94;36.73;101408.78;5091724;27;47809;-59
2022/05/18 10:30:31;;;;;;;;;2.00;2.00;;;;;29.61;37.44;101418.50;5074035;28;45331;-59
2022/05/18 10:33:21;;;;;;;;;2.00;1.20;;;;;29.28;37.18;101407.03;5077498;27;45546;-62
2022/05/18 10:35:49;;;;;;;;;3.80;3.00;;;;;29.00;37.17;101410.44;5077499;27;45415;-58
2022/05/18 10:38:26;;;;;;;;;1.20;1.20;;;;;28.75;38.04;101408.94;5077189;27;46105;-67
2022/05/18 10:41:04;;;;;;;;;2.60;2.60;;;;;28.60;38.91;101400.69;5077708;27;45547;-60
2022/05/18 10:43:35;;;;;;;;;4.40;4.40;;;;;28.45;39.79;101399.78;5077122;28;45370;-55
2022/05/18 10:46:08;;;;;;;;;3.20;3.20;;;;;28.23;39.63;101395.97;5074592;27;45556;-58
2022/05/18 10:48:34;;;;;;;;;3.40;3.40;;;;;28.02;39.99;101387.59;5076955;27;46179;-59
2022/05/18 10:51:06;;;;;;;;;3.00;3.00;;;;;27.82;40.59;101381.72;5075554;28;45408;-58
2022/05/18 10:53:35;;;;;;;;;3.80;3.80;;;;;27.83;40.32;101383.41;5076542;27;45381;-63
2022/05/18 10:56:07;;;;;;;;;3.80;3.20;;;;;27.78;40.82;101383.13;5077649;27;45357;-61
2022/05/18 10:58:44;;;;;;;;;3.80;2.00;;;;;27.76;41.10;101379.72;5076279;27;46244;-59
2022/05/18 11:01:17;;;;;;;;;2.60;2.60;;;;;27.77;40.59;101384.16;5075370;27;45553;-60
2022/05/18 11:04:11;;;;;;;;;2.20;2.20;;;;;27.85;40.49;101375.88;5072848;28;45181;-57
2022/05/18 11:06:41;;;;;;;;;2.60;2.60;;;;;27.68;40.81;101371.53;5074812;28;45567;-57
2022/05/18 11:09:20;;;;;;;;;2.80;2.80;;;;;27.65;40.55;101363.72;5074712;28;45464;-56
2022/05/18 11:12:11;;;;;;;;;3.20;3.00;;;;;27.76;41.19;101376.97;5061700;27;45223;-59
2022/05/18 11:14:37;;;;;;;;;5.40;4.00;;;;;27.81;40.12;101374.56;5077587;27;45426;-60
2022/05/18 11:17:02;;;;;;;;;3.75;3.75;;;;;27.69;39.81;101373.25;5075542;28;45463;-58
2022/05/18 11:19:57;;;;;;;;;2.75;2.75;;;;;27.56;41.22;101371.91;5076368;27;46582;-57
2022/05/18 11:22:46;;;;;;;;;2.60;2.60;;;;;27.50;41.20;101369.91;5068797;27;45545;-56
2022/05/18 11:25:42;;;;;;;;;5.80;4.40;;;;;27.52;41.48;101372.44;5065095;28;45306;-59
2022/05/18 11:28:22;;;;;;;;;6.00;4.80;;;;;27.42;41.58;101378.13;5076840;28;45522;-58
2022/05/18 11:31:16;;;;;;;;;6.00;6.00;;;;;27.35;41.45;101371.69;5076946;28;46084;-56
2022/05/18 11:33:51;;;;;;;;;3.20;3.20;;;;;27.44;41.63;101362.41;5075303;27;45413;-59
2022/05/18 11:36:22;;;;;;;;;2.60;2.60;;;;;27.52;41.27;101365.09;5075817;27;45381;-64
2022/05/18 11:39:07;;;;;;;;;3.20;3.20;;;;;27.69;40.77;101359.59;5074357;28;45329;-65
2022/05/18 11:41:56;;;;;;;;;5.00;4.80;;;;;27.88;40.96;101364.63;5073678;28;46124;-64
2022/05/18 11:44:28;;;;;;;;;5.00;4.00;;;;;27.97;40.81;101363.50;5075504;28;45350;-67
2022/05/18 11:47:10;;;;;;;;;3.00;2.80;;;;;28.00;39.84;101357.69;5076660;27;45468;-65
2022/05/18 11:49:39;;;;;;;;;3.60;3.60;;;;;28.11;39.59;101350.94;5075607;28;45241;-65
2022/05/18 11:52:32;;;;;;;;;1.60;1.40;;;;;28.25;39.15;101352.03;5075581;28;45334;-64
2022/05/18 11:55:06;;;;;;;;;1.80;1.80;;;;;28.28;38.69;101349.84;5075463;28;45568;-63